Time;durP1;ratioP1;P1;durP2;ratioP2;P2;SDS_P1;SDS_P2;PMS_P1;PMS_P2;Temp;Humidity;BMP_temperature;BMP_pressure;BME280_temperature;BME280_humidity;BME280_pressure;Samples;Min_cycle;Max_cycle;Signal;HPM_P1;HPM_P2
2022/04/16 00:01:09;;;;;;;2.10;2.00;;;19.70;49.90;20.50;102108.00;;;;5068603;28;20202;-50
2022/04/16 00:03:35;;;;;;;2.43;2.23;;;19.70;49.90;20.50;102107.00;;;;5068598;28;20170;-51
2022/04/16 00:06:00;;;;;;;2.00;1.90;;;19.70;50.00;20.50;102100.00;;;;5068114;28;20180;-48
2022/04/16 00:08:27;;;;;;;2.30;2.10;;;19.60;49.80;20.50;102101.00;;;;5068049;28;20177;-49
2022/04/16 00:10:53;;;;;;;2.10;2.00;;;19.70;50.00;20.50;102105.00;;;;5067692;28;20186;-49
2022/04/16 00:13:19;;;;;;;2.50;2.30;;;19.60;49.80;20.50;102096.00;;;;5067763;28;20664;-50
2022/04/16 00:15:46;;;;;;;2.30;2.20;;;19.60;49.80;20.40;102099.00;;;;5067207;28;20618;-49
2022/04/16 00:18:12;;;;;;;2.40;2.10;;;19.60;49.80;20.40;102092.00;;;;5067543;28;20169;-50
2022/04/16 00:20:40;;;;;;;2.10;2.00;;;19.60;49.90;20.40;102090.00;;;;5067238;28;20673;-51
2022/04/16 00:23:06;;;;;;;2.23;2.10;;;19.50;49.80;20.40;102088.00;;;;5067604;28;20436;-51
2022/04/16 00:25:33;;;;;;;2.30;2.10;;;19.50;49.80;20.40;102091.00;;;;5066893;28;20680;-51
2022/04/16 00:27:59;;;;;;;2.30;2.10;;;19.50;49.80;20.40;102093.00;;;;5067342;28;20176;-51
2022/04/16 00:30:25;;;;;;;2.10;2.00;;;19.50;49.80;20.30;102082.00;;;;5067652;28;20833;-51
2022/04/16 00:32:55;;;;;;;2.20;2.10;;;19.50;49.80;20.30;102099.00;;;;5066759;28;20186;-51
2022/04/16 00:35:21;;;;;;;2.30;2.10;;;19.50;49.80;20.10;102087.00;;;;5066636;28;20530;-51
2022/04/16 00:37:47;;;;;;;2.10;2.00;;;19.50;49.80;20.30;102088.00;;;;5066798;28;20169;-51
2022/04/16 00:40:13;;;;;;;2.30;2.10;;;19.40;49.70;20.30;102088.00;;;;5067469;28;20601;-51
2022/04/16 00:42:39;;;;;;;2.20;2.00;;;19.40;49.70;20.20;102083.00;;;;5066845;28;20193;-50
2022/04/16 00:45:06;;;;;;;2.30;2.10;;;19.40;49.90;20.20;102090.00;;;;5066361;28;20249;-50
2022/04/16 00:47:32;;;;;;;1.97;1.87;;;19.30;49.80;20.20;102089.00;;;;5066767;28;20184;-50
2022/04/16 00:49:59;;;;;;;2.20;2.00;;;19.40;49.80;20.20;102089.00;;;;5067286;28;20260;-49
2022/04/16 00:52:25;;;;;;;2.00;1.90;;;19.30;49.60;20.20;102086.00;;;;5065593;28;20232;-49
2022/04/16 00:54:50;;;;;;;2.27;2.07;;;19.30;49.60;20.20;102087.00;;;;5066769;28;20158;-51
2022/04/16 00:57:17;;;;;;;2.10;2.00;;;19.30;49.60;20.10;102085.00;;;;5065111;28;20569;-51
2022/04/16 00:59:43;;;;;;;2.10;2.00;;;19.30;49.70;20.10;102081.00;;;;5067023;28;20438;-50
2022/04/16 01:02:10;;;;;;;2.40;2.20;;;19.30;49.60;20.10;102088.00;;;;5066445;28;20292;-51
2022/04/16 01:04:36;;;;;;;2.10;2.00;;;19.30;49.60;20.10;102088.00;;;;5066340;28;20188;-50
2022/04/16 01:07:01;;;;;;;2.33;2.13;;;19.30;49.60;20.10;102098.00;;;;5066086;28;20174;-50
2022/04/16 01:09:27;;;;;;;2.23;2.00;;;19.20;49.60;20.10;102095.00;;;;5066649;28;20195;-50
2022/04/16 01:11:53;;;;;;;2.20;2.10;;;19.20;49.60;20.00;102095.00;;;;5066432;28;20193;-51
2022/04/16 01:14:21;;;;;;;2.00;1.90;;;19.20;49.70;20.00;102105.00;;;;5066206;28;20177;-51
2022/04/16 01:16:47;;;;;;;2.10;2.00;;;19.20;49.70;20.00;102107.00;;;;5049536;28;20259;-51
2022/04/16 01:19:12;;;;;;;2.00;1.90;;;19.20;49.80;20.00;102084.00;;;;5067205;28;20358;-49
2022/04/16 01:21:39;;;;;;;2.07;1.97;;;19.10;49.70;20.00;102100.00;;;;5066652;28;20209;-51
2022/04/16 01:24:05;;;;;;;1.90;1.80;;;19.20;49.90;20.00;102102.00;;;;5066603;28;20177;-49
2022/04/16 01:26:31;;;;;;;1.83;1.73;;;19.10;49.70;20.00;102100.00;;;;5065037;28;20238;-49
2022/04/16 01:28:57;;;;;;;2.00;1.90;;;19.10;49.70;20.00;102096.00;;;;5066739;28;20174;-50
2022/04/16 01:31:23;;;;;;;2.10;2.00;;;19.10;49.70;20.00;102083.00;;;;5066070;28;20214;-50
2022/04/16 01:33:48;;;;;;;2.00;1.90;;;19.20;49.80;19.90;102107.00;;;;5064601;28;20180;-50
2022/04/16 01:36:14;;;;;;;2.10;2.00;;;19.10;49.80;19.90;102101.00;;;;5065598;28;20536;-49
2022/04/16 01:38:40;;;;;;;2.00;1.90;;;19.00;49.80;19.90;102102.00;;;;5066035;28;20166;-50
2022/04/16 01:41:05;;;;;;;2.00;1.90;;;19.10;49.80;19.90;102109.00;;;;5066249;28;20255;-50
2022/04/16 01:43:31;;;;;;;2.20;2.10;;;19.00;49.80;19.90;102114.00;;;;5065946;28;20764;-51
2022/04/16 01:45:57;;;;;;;2.10;2.00;;;19.10;49.90;19.90;102112.00;;;;5065404;28;20366;-51
2022/04/16 01:48:27;;;;;;;2.10;2.00;;;19.00;49.70;19.90;102107.00;;;;5065594;28;20192;-50
2022/04/16 01:50:54;;;;;;;2.07;1.97;;;19.00;49.60;19.80;102111.00;;;;5066189;28;20304;-50
2022/04/16 01:53:20;;;;;;;2.17;1.97;;;19.10;49.80;19.80;102108.00;;;;5065832;28;20569;-51
2022/04/16 01:55:46;;;;;;;2.10;2.00;;;19.00;49.70;19.80;102116.00;;;;5065344;28;20176;-50
2022/04/16 01:58:13;;;;;;;1.87;1.77;;;19.00;49.60;19.80;102115.00;;;;5065898;28;20169;-50
2022/04/16 02:00:39;;;;;;;1.90;1.80;;;19.00;49.60;19.80;102117.00;;;;5065691;28;20367;-50
2022/04/16 02:03:05;;;;;;;2.00;1.90;;;19.00;49.70;19.80;102112.00;;;;5065289;28;20176;-50
2022/04/16 02:05:31;;;;;;;2.00;1.90;;;18.90;49.70;19.80;102109.00;;;;5065190;28;20173;-51
2022/04/16 02:07:56;;;;;;;2.33;2.13;;;18.90;49.80;19.80;102113.00;;;;5065249;28;20550;-50
2022/04/16 02:10:22;;;;;;;2.10;2.00;;;18.90;49.80;19.80;102130.00;;;;5065256;28;20168;-50
2022/04/16 02:12:48;;;;;;;2.00;1.90;;;18.90;49.80;19.80;102131.00;;;;5065213;28;20335;-50
2022/04/16 02:15:14;;;;;;;2.10;2.00;;;18.90;49.80;19.80;102133.00;;;;5064674;28;20179;-50
2022/04/16 02:17:40;;;;;;;2.30;2.10;;;18.90;49.80;19.80;102136.00;;;;5065328;28;20166;-50
2022/04/16 02:20:07;;;;;;;2.20;2.10;;;18.80;49.70;19.80;102138.00;;;;5065678;28;20165;-50
2022/04/16 02:22:43;;;;;;;2.10;2.00;;;18.80;49.70;19.80;102141.00;;;;5065148;28;20701;-50
2022/04/16 02:25:09;;;;;;;2.27;2.07;;;18.80;49.80;19.80;102146.00;;;;5064435;28;20676;-50
2022/04/16 02:27:35;;;;;;;2.10;2.00;;;18.80;49.80;19.70;102140.00;;;;5065100;28;20173;-51
2022/04/16 02:30:07;;;;;;;2.10;2.00;;;18.70;49.70;19.70;102130.00;;;;5065312;28;20173;-52
2022/04/16 02:32:39;;;;;;;2.10;2.00;;;18.70;49.80;19.70;102141.00;;;;5063767;28;20678;-51
2022/04/16 02:35:08;;;;;;;2.10;2.00;;;18.70;49.80;19.70;102144.00;;;;5063344;28;20223;-51
2022/04/16 02:37:34;;;;;;;1.90;1.80;;;18.70;49.80;19.70;102141.00;;;;5064682;28;20165;-51
2022/04/16 02:40:00;;;;;;;1.97;1.87;;;18.70;49.80;19.70;102149.00;;;;5065437;28;20536;-51
2022/04/16 02:42:25;;;;;;;2.10;2.00;;;18.70;49.70;19.70;102145.00;;;;5065287;28;20243;-51
2022/04/16 02:47:35;;;;;;;2.10;2.00;;;18.70;50.30;19.60;102143.00;;;;5065267;28;20251;-51
2022/04/16 02:50:01;;;;;;;2.20;2.10;;;18.70;49.70;19.60;102165.00;;;;5065154;28;20826;-51
2022/04/16 02:52:27;;;;;;;2.10;2.00;;;18.70;49.70;19.60;102153.00;;;;5065060;28;20215;-51
2022/04/16 02:54:52;;;;;;;2.20;2.10;;;18.60;49.60;19.60;102144.00;;;;5064552;28;20173;-51
2022/04/16 02:57:18;;;;;;;2.00;1.90;;;18.60;49.60;19.60;102150.00;;;;5064736;28;20177;-50
2022/04/16 02:59:46;;;;;;;2.33;2.13;;;18.60;49.70;19.60;102149.00;;;;5057579;28;20702;-49
2022/04/16 03:02:13;;;;;;;2.30;2.10;;;18.60;49.70;19.60;102160.00;;;;5053392;28;20770;-50
2022/04/16 03:04:39;;;;;;;3.90;2.60;;;18.60;50.00;19.50;102152.00;;;;5045468;28;20167;-51
2022/04/16 03:07:05;;;;;;;7.80;2.60;;;18.60;50.10;19.50;102159.00;;;;5046368;28;20179;-50
2022/04/16 03:09:30;;;;;;;2.70;2.50;;;18.50;50.00;19.50;102165.00;;;;5045209;28;20178;-50
2022/04/16 03:11:58;;;;;;;3.23;2.60;;;18.50;50.00;19.50;102164.00;;;;5044774;28;20251;-51
2022/04/16 03:19:52;;;;;;;3.37;2.90;;;18.50;50.00;19.40;102176.00;;;;5045626;28;20205;-52
2022/04/16 03:22:18;;;;;;;3.00;2.80;;;18.50;50.00;19.40;102169.00;;;;5043786;28;20205;-49
2022/04/16 03:24:43;;;;;;;3.53;3.00;;;18.50;49.90;19.30;102170.00;;;;5042579;28;20642;-52
2022/04/16 03:27:09;;;;;;;3.30;3.00;;;18.50;49.90;19.30;102163.00;;;;5043892;28;20221;-51
2022/04/16 03:29:35;;;;;;;3.23;2.83;;;18.40;49.90;19.30;102171.00;;;;5044468;28;20185;-51
2022/04/16 03:32:01;;;;;;;3.30;3.00;;;18.40;49.90;19.30;102173.00;;;;5043795;28;20208;-52
2022/04/16 03:34:26;;;;;;;3.63;3.03;;;18.40;49.90;19.30;102171.00;;;;5044191;28;20184;-51
2022/04/16 03:36:52;;;;;;;3.53;3.23;;;18.40;49.90;19.20;102174.00;;;;5044250;28;20184;-50
2022/04/16 03:39:20;;;;;;;3.70;3.40;;;18.40;49.80;19.20;102169.00;;;;5048118;28;20437;-50
2022/04/16 03:41:47;;;;;;;3.70;3.40;;;18.40;49.80;19.20;102176.00;;;;5047870;28;20198;-51
2022/04/16 03:44:13;;;;;;;4.17;3.47;;;18.30;49.80;19.20;102178.00;;;;5047355;28;20177;-51
2022/04/16 03:46:38;;;;;;;3.70;3.40;;;18.30;49.80;19.20;102171.00;;;;5047345;28;20389;-51
2022/04/16 03:49:04;;;;;;;3.80;3.50;;;18.30;49.70;19.10;102165.00;;;;5048340;28;20178;-51
2022/04/16 03:51:30;;;;;;;3.63;3.33;;;18.30;49.70;19.10;102183.00;;;;5049114;28;20201;-51
2022/04/16 03:59:59;;;;;;;4.20;3.80;;;18.30;49.70;19.10;102180.00;;;;5047905;28;20175;-51
2022/04/16 04:02:10;;;;;;;4.27;3.87;;;18.20;49.40;19.00;102171.00;;;;5048192;28;20242;-50
2022/04/16 04:04:36;;;;;;;4.07;3.67;;;18.20;49.50;18.80;102173.00;;;;5046723;28;20802;-51
2022/04/16 04:07:01;;;;;;;4.93;3.60;;;18.20;49.50;19.00;102171.00;;;;5047554;28;20173;-51
2022/04/16 04:09:27;;;;;;;3.80;3.50;;;18.20;49.50;19.00;102173.00;;;;5048031;28;20590;-51
2022/04/16 04:11:53;;;;;;;6.73;3.60;;;18.20;49.50;18.90;102180.00;;;;5047709;28;20193;-51
2022/04/16 04:14:18;;;;;;;7.70;3.60;;;18.20;49.70;18.90;102181.00;;;;5047852;28;20185;-51
2022/04/16 04:16:44;;;;;;;4.00;3.70;;;18.10;49.70;18.90;102179.00;;;;5047116;28;20154;-51
2022/04/16 04:19:10;;;;;;;4.03;3.53;;;18.10;49.70;18.90;102187.00;;;;5047893;28;20706;-51
2022/04/16 04:21:35;;;;;;;5.20;3.77;;;18.10;49.80;18.90;102200.00;;;;5053102;28;20198;-50
2022/04/16 04:24:01;;;;;;;4.07;3.63;;;18.10;49.80;18.90;102191.00;;;;5052433;28;20187;-51
2022/04/16 04:26:27;;;;;;;6.33;3.80;;;18.10;49.80;18.90;102195.00;;;;5046079;28;20179;-51
2022/04/16 04:28:54;;;;;;;4.17;3.40;;;18.10;49.90;18.90;102206.00;;;;5046951;28;20183;-50
2022/04/16 04:31:20;;;;;;;3.90;3.40;;;18.00;49.80;18.90;102197.00;;;;5045295;28;20206;-51
2022/04/16 04:33:45;;;;;;;7.73;3.60;;;18.00;49.90;18.90;102199.00;;;;5045302;28;20184;-50
2022/04/16 04:36:11;;;;;;;4.73;4.07;;;18.00;49.90;18.90;102204.00;;;;5045636;28;20180;-49
2022/04/16 04:38:37;;;;;;;5.33;3.80;;;18.00;49.90;18.80;102201.00;;;;5046494;28;20234;-50
2022/04/16 04:41:04;;;;;;;4.07;3.67;;;18.00;49.90;18.80;102202.00;;;;5046843;28;20186;-51
2022/04/16 04:43:30;;;;;;;3.57;3.30;;;18.00;50.00;18.80;102205.00;;;;5047546;28;20292;-50
2022/04/16 04:45:55;;;;;;;4.37;3.97;;;18.00;50.00;18.80;102212.00;;;;5046400;28;20221;-50
2022/04/16 04:48:21;;;;;;;5.17;3.80;;;18.00;50.00;18.80;102212.00;;;;5046943;28;20768;-50
2022/04/16 04:50:47;;;;;;;4.37;3.60;;;17.90;49.90;18.80;102215.00;;;;5046290;28;20745;-50
2022/04/16 04:53:13;;;;;;;4.17;3.53;;;17.90;49.90;18.70;102225.00;;;;5046716;28;20759;-50
2022/04/16 04:55:38;;;;;;;4.40;3.50;;;17.90;49.90;18.70;102226.00;;;;5046180;28;20171;-50
2022/04/16 04:58:04;;;;;;;4.00;3.60;;;17.90;49.90;18.70;102184.00;;;;5047318;28;20209;-50
2022/04/16 05:00:30;;;;;;;3.90;3.60;;;17.90;49.90;18.70;102226.00;;;;5048810;28;20192;-51
2022/04/16 05:02:56;;;;;;;4.10;3.80;;;17.80;49.80;18.70;102233.00;;;;5045335;28;20189;-50
2022/04/16 05:05:22;;;;;;;4.10;3.77;;;17.90;49.90;18.70;102229.00;;;;5046072;28;20190;-50
2022/04/16 05:07:47;;;;;;;4.03;3.73;;;17.80;49.80;18.60;102227.00;;;;5045229;28;20182;-50
2022/04/16 05:10:13;;;;;;;4.00;3.70;;;17.80;49.80;18.60;102238.00;;;;5046468;28;20175;-50
2022/04/16 05:12:39;;;;;;;4.20;3.90;;;17.80;49.80;18.60;102245.00;;;;5046502;28;20206;-51
2022/04/16 05:15:06;;;;;;;4.00;3.70;;;17.80;50.00;18.60;102237.00;;;;5045981;28;20842;-51
2022/04/16 05:17:32;;;;;;;4.50;4.10;;;17.80;49.80;18.60;102249.00;;;;5045870;28;20179;-50
2022/04/16 05:19:58;;;;;;;4.50;4.10;;;17.70;49.80;18.50;102241.00;;;;5046826;28;20174;-50
2022/04/16 05:22:23;;;;;;;4.10;3.80;;;17.70;49.80;18.50;102245.00;;;;5046610;28;20194;-50
2022/04/16 05:24:49;;;;;;;4.70;4.10;;;17.70;49.80;18.50;102251.00;;;;5044820;28;20234;-51
2022/04/16 05:27:15;;;;;;;4.63;4.23;;;17.70;49.80;18.50;102258.00;;;;5046011;28;20737;-50
2022/04/16 05:29:56;;;;;;;4.40;4.10;;;17.70;49.70;18.50;102246.00;;;;5046529;28;20175;-51
2022/04/16 05:32:24;;;;;;;5.13;4.67;;;17.70;49.80;18.50;102243.00;;;;5045679;28;20587;-52
2022/04/16 05:34:53;;;;;;;4.50;4.10;;;17.70;49.80;18.50;102250.00;;;;5055224;28;20178;-52
2022/04/16 05:37:19;;;;;;;4.80;4.40;;;17.60;49.70;18.50;102255.00;;;;5050307;28;20174;-50
2022/04/16 05:39:45;;;;;;;4.83;4.40;;;17.60;49.70;18.40;102253.00;;;;5046386;28;20527;-50
2022/04/16 05:42:12;;;;;;;5.00;4.60;;;17.60;49.80;18.40;102268.00;;;;5045837;28;20211;-49
2022/04/16 05:44:38;;;;;;;4.90;4.43;;;17.60;49.80;18.40;102270.00;;;;5046073;28;20268;-51
2022/04/16 05:47:04;;;;;;;4.93;4.53;;;17.60;49.80;18.40;102276.00;;;;5047489;28;20180;-50
2022/04/16 05:49:30;;;;;;;4.60;4.20;;;17.60;49.80;18.40;102276.00;;;;5046126;28;20517;-52
2022/04/16 05:51:55;;;;;;;4.87;4.47;;;17.60;49.90;18.40;102276.00;;;;5045704;28;20206;-50
2022/04/16 05:54:21;;;;;;;4.70;4.30;;;17.60;49.90;18.40;102280.00;;;;5044033;28;20176;-50
2022/04/16 05:56:47;;;;;;;4.77;4.37;;;17.60;49.90;18.40;102289.00;;;;5045515;28;20247;-50
2022/04/16 05:59:13;;;;;;;4.90;4.50;;;17.50;49.80;18.40;102296.00;;;;5045605;28;20175;-51
2022/04/16 06:01:38;;;;;;;4.90;4.50;;;17.60;50.00;18.40;102283.00;;;;5045016;28;20266;-50
2022/04/16 06:04:04;;;;;;;5.20;4.80;;;17.50;49.80;18.40;102294.00;;;;5045468;28;20547;-51
2022/04/16 06:06:30;;;;;;;5.07;4.37;;;17.50;49.90;18.40;102291.00;;;;5045439;28;20171;-50
2022/04/16 06:08:55;;;;;;;4.40;4.10;;;17.50;49.90;18.40;102287.00;;;;5045281;28;20181;-50
2022/04/16 06:11:25;;;;;;;4.50;4.10;;;17.50;49.90;18.40;102293.00;;;;5045613;28;20237;-50
2022/04/16 06:13:50;;;;;;;4.60;4.20;;;17.50;49.90;18.30;102296.00;;;;5045738;28;20181;-50
2022/04/16 06:16:16;;;;;;;4.43;4.03;;;17.50;49.90;18.30;102299.00;;;;5045202;28;20176;-51
2022/04/16 06:18:42;;;;;;;4.70;4.30;;;17.50;50.00;18.20;102299.00;;;;5045387;28;20166;-51
2022/04/16 06:21:08;;;;;;;4.73;4.33;;;17.50;50.00;18.30;102307.00;;;;5045330;28;20206;-50
2022/04/16 06:23:33;;;;;;;4.90;4.50;;;17.50;50.00;18.30;102310.00;;;;5045207;28;20171;-52
2022/04/16 06:25:59;;;;;;;4.63;4.23;;;17.50;50.00;18.30;102302.00;;;;5044909;28;20585;-50
2022/04/16 06:28:25;;;;;;;5.20;4.70;;;17.50;50.00;18.30;102305.00;;;;5045249;28;20514;-50
2022/04/16 06:30:51;;;;;;;5.13;4.53;;;17.50;50.10;18.30;102308.00;;;;5045150;28;20222;-50
2022/04/16 06:33:17;;;;;;;4.70;4.30;;;17.40;50.00;18.30;102309.00;;;;5044682;28;20198;-50
2022/04/16 06:35:42;;;;;;;4.90;4.40;;;17.50;50.10;18.30;102306.00;;;;5044616;28;20570;-51
2022/04/16 06:38:09;;;;;;;5.77;4.67;;;17.40;50.00;18.30;102298.00;;;;5045120;28;20174;-50
2022/04/16 06:40:34;;;;;;;4.67;4.20;;;17.40;50.00;18.20;102310.00;;;;5045083;28;20198;-51
2022/04/16 06:43:00;;;;;;;4.67;4.27;;;17.40;50.00;18.20;102320.00;;;;5044863;28;20224;-51
2022/04/16 06:45:26;;;;;;;5.40;4.50;;;17.50;50.10;18.20;102315.00;;;;5048319;28;20178;-50
2022/04/16 06:47:52;;;;;;;4.80;4.40;;;17.40;50.10;18.20;102315.00;;;;5052650;28;20670;-50
2022/04/16 06:50:17;;;;;;;5.30;4.40;;;17.40;50.10;18.20;102316.00;;;;5044463;28;20171;-50
2022/04/16 06:52:43;;;;;;;4.80;4.40;;;17.40;50.20;18.20;102309.00;;;;5045125;28;20266;-52
2022/04/16 06:55:09;;;;;;;5.07;4.57;;;17.40;50.20;18.20;102316.00;;;;5046663;28;20182;-51
2022/04/16 06:57:35;;;;;;;5.50;4.40;;;17.40;50.20;18.20;102311.00;;;;5064607;28;20193;-50
2022/04/16 07:00:00;;;;;;;5.07;4.57;;;17.40;50.20;17.90;102318.00;;;;5064956;28;20226;-49
2022/04/16 07:02:26;;;;;;;4.83;4.43;;;17.40;50.20;18.20;102317.00;;;;5065656;28;20216;-50
2022/04/16 07:04:52;;;;;;;4.83;4.43;;;17.40;50.30;18.20;102315.00;;;;5066049;28;20173;-51
2022/04/16 07:07:18;;;;;;;4.57;4.17;;;17.40;50.20;18.10;102311.00;;;;5063344;28;20186;-51
2022/04/16 07:09:43;;;;;;;4.60;4.20;;;17.40;50.20;18.20;102317.00;;;;5064824;28;20873;-53
2022/04/16 07:12:10;;;;;;;4.83;4.33;;;17.40;50.20;18.10;102312.00;;;;5065687;28;20194;-51
2022/04/16 07:14:38;;;;;;;6.03;4.27;;;17.30;50.30;18.10;102317.00;;;;5068695;28;20166;-50
2022/04/16 07:17:05;;;;;;;4.77;4.27;;;17.40;50.30;18.20;102317.00;;;;5068583;28;20223;-51
2022/04/16 07:19:31;;;;;;;4.27;3.87;;;17.30;50.30;18.10;102312.00;;;;5068984;28;20162;-51
2022/04/16 07:21:57;;;;;;;4.30;3.90;;;17.40;50.40;18.10;102312.00;;;;5069451;28;20218;-50
2022/04/16 07:24:25;;;;;;;4.27;3.87;;;17.30;50.40;18.10;102318.00;;;;5069963;28;20208;-50
2022/04/16 07:26:54;;;;;;;4.30;3.90;;;17.30;50.50;18.10;102312.00;;;;5069630;28;20251;-51
2022/04/16 07:29:26;;;;;;;4.63;3.80;;;17.30;50.40;18.10;102310.00;;;;5069084;28;20169;-52
2022/04/16 07:31:51;;;;;;;4.20;3.80;;;17.30;50.50;18.10;102312.00;;;;5068411;28;20202;-50
2022/04/16 07:34:17;;;;;;;4.23;3.90;;;17.30;50.50;18.10;102316.00;;;;5068290;28;20224;-50
2022/04/16 07:36:43;;;;;;;5.00;4.30;;;17.30;50.60;18.10;102313.00;;;;5067862;28;20165;-50
2022/04/16 07:39:10;;;;;;;4.33;3.93;;;17.30;50.60;18.10;102318.00;;;;5068799;28;20252;-51
2022/04/16 07:41:36;;;;;;;4.33;3.97;;;17.30;50.70;18.10;102308.00;;;;5068328;28;20585;-51
2022/04/16 07:44:03;;;;;;;4.23;3.93;;;17.30;50.70;18.10;102311.00;;;;5069395;28;20173;-51
2022/04/16 07:46:35;;;;;;;5.70;3.70;;;17.20;50.70;18.10;102313.00;;;;5066731;28;20538;-51
2022/04/16 07:49:01;;;;;;;4.10;3.70;;;17.30;50.80;18.10;102315.00;;;;5068984;28;20159;-50
2022/04/16 07:51:27;;;;;;;5.90;3.60;;;17.30;50.90;18.10;102310.00;;;;5066790;28;20220;-52
2022/04/16 07:53:53;;;;;;;7.80;4.00;;;17.30;50.90;18.10;102308.00;;;;5068334;28;20193;-51
2022/04/16 07:56:19;;;;;;;4.90;3.57;;;17.30;51.10;18.20;102303.00;;;;5067816;28;20245;-51
2022/04/16 07:58:45;;;;;;;8.53;3.80;;;17.30;51.30;18.10;102301.00;;;;5068307;28;20253;-51
2022/04/16 08:01:11;;;;;;;3.97;3.50;;;17.30;51.50;18.10;102304.00;;;;5067621;28;20289;-50
2022/04/16 08:03:37;;;;;;;4.50;3.60;;;17.30;52.30;18.10;102306.00;;;;5067907;28;20170;-50
2022/04/16 08:06:03;;;;;;;3.90;3.60;;;17.30;51.70;18.10;102302.00;;;;5067536;28;20170;-51
2022/04/16 08:08:28;;;;;;;4.83;3.40;;;17.30;51.80;18.00;102297.00;;;;5068367;28;20707;-51
2022/04/16 08:10:54;;;;;;;3.90;3.20;;;17.30;51.80;18.20;102298.00;;;;5062079;28;20700;-51
2022/04/16 08:13:20;;;;;;;4.57;3.27;;;17.30;51.80;18.10;102308.00;;;;5070743;28;20603;-50
2022/04/16 08:15:46;;;;;;;3.80;3.50;;;17.30;51.90;18.20;102303.00;;;;5070094;28;20249;-50
2022/04/16 08:18:12;;;;;;;4.73;3.40;;;17.30;52.00;18.20;102306.00;;;;5071126;28;20256;-50
2022/04/16 08:20:38;;;;;;;3.60;3.30;;;17.30;51.90;18.20;102301.00;;;;5070637;28;20255;-50
2022/04/16 08:23:06;;;;;;;3.40;3.20;;;17.30;52.00;18.20;102304.00;;;;5070540;28;20178;-50
2022/04/16 08:28:02;;;;;;;3.33;3.00;;;17.20;52.10;18.20;102305.00;;;;5081396;28;20169;-51
2022/04/16 08:30:28;;;;;;;3.27;3.07;;;17.30;52.30;18.20;102305.00;;;;5070878;28;20945;-51
2022/04/16 08:32:53;;;;;;;3.80;3.50;;;17.30;52.30;18.20;102307.00;;;;5067172;28;20193;-51
2022/04/16 08:35:19;;;;;;;3.43;3.20;;;17.30;52.30;18.20;102319.00;;;;5069319;28;20165;-50
2022/04/16 08:37:46;;;;;;;3.97;3.40;;;17.30;52.30;18.20;102307.00;;;;5069887;28;20240;-51
2022/04/16 08:40:13;;;;;;;3.40;3.10;;;17.30;52.60;18.10;102320.00;;;;5070107;28;20207;-50
2022/04/16 08:42:39;;;;;;;3.53;3.23;;;17.20;53.00;18.10;102327.00;;;;5069655;28;20268;-51
2022/04/16 08:45:06;;;;;;;3.27;3.07;;;17.20;53.20;18.10;102323.00;;;;5069561;28;20654;-52
2022/04/16 08:47:32;;;;;;;3.27;2.97;;;17.30;53.50;18.10;102320.00;;;;5069360;28;20188;-51
2022/04/16 08:50:03;;;;;;;6.53;3.20;;;17.20;53.50;18.10;102328.00;;;;5068241;28;20805;-52
2022/04/16 08:52:30;;;;;;;4.10;3.10;;;17.30;53.80;18.10;102325.00;;;;5069216;28;20201;-51
2022/04/16 08:55:00;;;;;;;3.50;3.20;;;17.30;54.20;18.10;102341.00;;;;5068769;28;20162;-51
2022/04/16 08:57:26;;;;;;;5.23;3.30;;;17.20;54.50;18.10;102320.00;;;;4995449;28;20268;-51
2022/04/16 08:59:53;;;;;;;3.73;3.23;;;17.20;54.60;18.10;102339.00;;;;5051804;28;20814;-50
2022/04/16 09:02:20;;;;;;;3.20;2.90;;;17.20;55.30;18.10;102331.00;;;;5069180;28;20715;-50
2022/04/16 09:04:47;;;;;;;5.83;3.43;;;17.30;55.80;18.10;102327.00;;;;5067876;28;20185;-49
2022/04/16 09:07:13;;;;;;;6.03;3.00;;;17.30;55.60;18.10;102326.00;;;;5067971;28;20551;-50
2022/04/16 09:09:39;;;;;;;11.43;3.30;;;17.30;55.40;18.10;102331.00;;;;5070198;28;20582;-50
2022/04/16 09:12:25;;;;;;;7.27;3.20;;;17.30;55.00;18.10;102325.00;;;;5069387;28;20194;-51
2022/04/16 09:14:51;;;;;;;7.73;3.17;;;17.30;55.00;18.10;102327.00;;;;5067977;28;20234;-50
2022/04/16 09:17:17;;;;;;;4.70;2.90;;;17.30;54.80;18.10;102329.00;;;;5068644;28;20178;-50
2022/04/16 09:19:43;;;;;;;5.23;2.70;;;17.30;54.60;18.10;102327.00;;;;5068967;28;20192;-50
2022/04/16 09:22:09;;;;;;;3.77;3.00;;;17.30;54.60;18.10;102325.00;;;;5069093;28;20198;-50
2022/04/16 09:24:47;;;;;;;5.43;3.00;;;17.30;54.60;18.20;102324.00;;;;5068481;28;20280;-50
2022/04/16 09:27:13;;;;;;;3.80;2.70;;;17.30;54.60;18.20;102327.00;;;;5068425;28;20198;-50
2022/04/16 09:29:40;;;;;;;3.37;2.93;;;17.30;54.60;18.20;102327.00;;;;5068941;28;20274;-50
2022/04/16 09:32:06;;;;;;;4.60;2.90;;;17.30;54.50;18.20;102324.00;;;;5069209;28;20193;-50
2022/04/16 09:34:32;;;;;;;2.90;2.67;;;17.30;54.60;18.20;102332.00;;;;5067997;28;20650;-50
2022/04/16 09:37:11;;;;;;;2.63;2.43;;;17.30;54.50;18.20;102327.00;;;;5067937;28;20189;-50
2022/04/16 09:39:37;;;;;;;4.60;3.10;;;17.30;54.60;18.20;102329.00;;;;5069134;28;20622;-49
2022/04/16 09:42:02;;;;;;;6.37;3.00;;;17.30;54.60;18.20;102332.00;;;;5068270;28;20198;-49
2022/04/16 09:44:28;;;;;;;7.53;3.30;;;17.40;54.80;18.20;102326.00;;;;5068039;28;20189;-50
2022/04/16 09:46:55;;;;;;;3.87;2.97;;;17.40;55.10;18.20;102312.00;;;;5068991;28;20171;-50
2022/04/16 09:49:21;;;;;;;4.20;2.83;;;17.40;55.30;18.20;102325.00;;;;5076708;28;20238;-58
2022/04/16 09:51:48;;;;;;;3.07;2.80;;;17.40;55.10;18.20;102325.00;;;;5076972;28;20228;-51
2022/04/16 09:54:14;;;;;;;5.27;2.77;;;17.50;55.10;18.20;102325.00;;;;5070371;28;20614;-50
2022/04/16 09:56:41;;;;;;;3.17;2.77;;;17.50;54.70;18.20;102317.00;;;;5068566;28;20213;-50
2022/04/16 09:59:12;;;;;;;4.20;2.83;;;17.50;55.00;18.20;102310.00;;;;4992676;28;20169;-49
2022/04/16 10:01:39;;;;;;;2.77;2.57;;;17.50;54.80;18.20;102318.00;;;;5068348;28;20232;-51
2022/04/16 10:04:07;;;;;;;3.20;2.50;;;17.50;55.10;18.30;102319.00;;;;5068076;28;20181;-50
2022/04/16 10:06:33;;;;;;;4.23;2.40;;;17.60;54.80;18.30;102313.00;;;;5067177;28;20714;-50
2022/04/16 10:09:00;;;;;;;2.43;2.23;;;17.70;54.20;18.40;102321.00;;;;5069431;28;20165;-50
2022/04/16 10:14:54;;;;;;;6.37;2.40;;;17.90;53.90;18.50;102307.00;;;;5034438;28;20314;-49
2022/04/16 10:17:35;;;;;;;2.50;2.30;;;18.20;53.00;18.60;102314.00;;;;5046929;28;20170;-49
2022/04/16 10:20:12;;;;;;;2.37;2.17;;;18.40;52.20;18.70;102326.00;;;;5048835;28;20168;-48
2022/04/16 10:22:38;;;;;;;2.60;2.10;;;18.40;51.90;18.80;102316.00;;;;5067762;28;20223;-49
2022/04/16 10:25:05;;;;;;;4.17;2.10;;;18.30;52.30;18.80;102258.00;;;;5067693;28;20607;-49
2022/04/16 10:27:37;;;;;;;3.17;2.07;;;18.20;52.60;18.80;102307.00;;;;5067531;28;20226;-49
2022/04/16 10:30:11;;;;;;;3.00;2.20;;;18.10;53.00;18.70;102314.00;;;;5068183;28;20639;-49
2022/04/16 10:32:41;;;;;;;3.70;2.17;;;18.00;53.20;18.70;102321.00;;;;5066824;28;20198;-50
2022/04/16 10:35:15;;;;;;;4.67;2.10;;;18.00;53.30;18.70;102321.00;;;;5067500;28;20180;-50
2022/04/16 10:37:43;;;;;;;3.10;2.10;;;17.90;53.40;18.70;102327.00;;;;5068028;28;20644;-49
2022/04/16 10:40:23;;;;;;;2.10;2.00;;;17.90;53.50;18.70;102310.00;;;;5067973;28;20228;-50
2022/04/16 10:42:58;;;;;;;3.20;2.20;;;17.80;53.40;18.70;102313.00;;;;5068053;28;20153;-49
2022/04/16 10:45:24;;;;;;;2.47;2.10;;;17.80;53.50;18.70;102307.00;;;;5067456;28;20852;-49
2022/04/16 10:47:51;;;;;;;2.13;2.03;;;17.80;53.50;18.60;102287.00;;;;5066709;28;20242;-49
2022/04/16 10:50:19;;;;;;;2.27;2.00;;;17.80;53.50;18.70;102307.00;;;;5067467;28;20540;-49
2022/04/16 10:53:00;;;;;;;2.37;2.00;;;17.80;53.50;18.70;102317.00;;;;5067808;28;20199;-48
2022/04/16 10:55:32;;;;;;;2.70;2.20;;;17.90;53.70;18.40;102297.00;;;;5068046;28;20165;-49
2022/04/16 10:58:03;;;;;;;2.40;2.20;;;17.80;53.40;18.60;102304.00;;;;5066263;28;20208;-48
2022/04/16 11:00:49;;;;;;;2.47;2.00;;;17.80;53.30;18.70;102311.00;;;;5050109;28;20198;-49
2022/04/16 11:03:28;;;;;;;2.33;2.13;;;17.80;53.70;18.70;102303.00;;;;5047494;28;20171;-50
2022/04/16 11:06:04;;;;;;;3.87;2.50;;;17.90;53.60;18.70;102301.00;;;;5047035;28;20835;-50